Time;durP1;ratioP1;P1;durP2;ratioP2;P2;SDS_P1;SDS_P2;PMS_P1;PMS_P2;Temp;Humidity;BMP_temperature;BMP_pressure;BME280_temperature;BME280_humidity;BME280_pressure;Samples;Min_cycle;Max_cycle;Signal;HPM_P1;HPM_P2
2023/03/06 00:00:05;;;;;;;33.43;12.70;;;4.90;1.00;;;;;;5008244;28;20552;-71
2023/03/06 00:02:30;;;;;;;21.27;12.53;;;4.90;1.00;;;;;;5008712;28;20202;-71
2023/03/06 00:04:56;;;;;;;25.17;13.10;;;5.00;1.00;;;;;;5008502;28;20495;-71
2023/03/06 00:07:21;;;;;;;21.90;12.07;;;5.00;1.00;;;;;;5006769;28;20193;-71
2023/03/06 00:09:47;;;;;;;30.30;13.57;;;5.00;1.00;;;;;;5009854;28;20206;-71
2023/03/06 00:12:12;;;;;;;23.93;12.83;;;5.10;1.00;;;;;;5008467;28;20241;-71
2023/03/06 00:14:38;;;;;;;24.47;14.30;;;5.00;1.00;;;;;;5024424;28;20187;-71
2023/03/06 00:17:04;;;;;;;23.40;13.63;;;5.00;1.00;;;;;;5009512;28;20442;-69
2023/03/06 00:19:29;;;;;;;27.47;13.37;;;4.90;1.00;;;;;;5008767;28;20534;-69
2023/03/06 00:21:55;;;;;;;22.87;12.90;;;5.00;1.00;;;;;;5007568;28;20199;-71
2023/03/06 00:24:20;;;;;;;25.17;13.33;;;5.00;1.00;;;;;;5008405;28;20187;-71
2023/03/06 00:26:46;;;;;;;26.83;13.63;;;5.00;1.00;;;;;;5008824;28;20205;-71
2023/03/06 00:29:11;;;;;;;26.90;13.73;;;5.10;1.00;;;;;;5009223;28;20565;-71
2023/03/06 00:31:37;;;;;;;26.90;12.63;;;5.00;1.00;;;;;;5009062;28;20203;-71
2023/03/06 00:34:03;;;;;;;19.67;12.53;;;4.90;1.00;;;;;;5008572;28;20269;-71
2023/03/06 00:36:28;;;;;;;23.90;13.10;;;4.90;1.00;;;;;;5009248;28;20264;-71
2023/03/06 00:38:54;;;;;;;23.43;12.60;;;4.80;1.00;;;;;;5008384;28;20197;-70
2023/03/06 00:41:20;;;;;;;26.47;13.43;;;4.80;1.00;;;;;;5008238;28;20558;-71
2023/03/06 00:43:46;;;;;;;27.80;14.13;;;4.80;1.00;;;;;;5007804;28;20193;-70
2023/03/06 00:46:11;;;;;;;26.80;14.13;;;4.70;1.00;;;;;;5009902;28;20688;-71
2023/03/06 00:48:37;;;;;;;22.10;13.60;;;5.00;1.00;;;;;;5009010;28;20189;-70
2023/03/06 00:51:02;;;;;;;26.33;13.90;;;4.70;1.00;;;;;;5007352;28;20740;-71
2023/03/06 00:53:28;;;;;;;25.70;14.60;;;4.70;1.00;;;;;;5006181;28;20194;-70
2023/03/06 00:55:53;;;;;;;27.03;13.93;;;4.90;1.00;;;;;;5007873;28;20190;-70
2023/03/06 00:58:19;;;;;;;25.17;13.80;;;4.90;1.00;;;;;;5008147;28;20187;-70
2023/03/06 01:00:45;;;;;;;27.43;13.27;;;4.70;1.00;;;;;;5007994;28;20707;-70
2023/03/06 01:03:11;;;;;;;23.40;13.73;;;4.70;1.00;;;;;;5008570;28;20232;-70
2023/03/06 01:05:37;;;;;;;25.23;15.23;;;5.20;1.00;;;;;;5009514;28;20721;-71
2023/03/06 01:08:04;;;;;;;26.03;14.00;;;5.00;1.00;;;;;;5009170;28;20421;-71
2023/03/06 01:10:30;;;;;;;24.10;13.07;;;4.70;1.00;;;;;;5008193;28;20675;-71
2023/03/06 01:12:55;;;;;;;27.10;13.57;;;4.70;1.00;;;;;;5005962;28;20448;-70
2023/03/06 01:15:21;;;;;;;23.70;12.40;;;4.80;1.00;;;;;;5009588;28;20184;-69
2023/03/06 01:17:50;;;;;;;22.60;12.80;;;4.70;1.00;;;;;;5008259;28;20535;-70
2023/03/06 01:20:16;;;;;;;23.17;13.23;;;5.10;1.00;;;;;;5008954;28;20234;-72
2023/03/06 01:22:42;;;;;;;23.50;12.97;;;4.70;1.00;;;;;;5007991;28;20450;-71
2023/03/06 01:25:08;;;;;;;22.87;12.93;;;4.70;1.00;;;;;;5009140;28;20424;-71
2023/03/06 01:27:33;;;;;;;23.47;13.43;;;4.60;1.00;;;;;;5008262;28;20194;-71
2023/03/06 01:29:59;;;;;;;28.67;13.27;;;4.20;1.00;;;;;;5006594;28;20457;-71
2023/03/06 01:32:24;;;;;;;20.17;11.87;;;4.60;1.00;;;;;;5007429;28;20191;-71
2023/03/06 01:34:50;;;;;;;27.00;13.20;;;4.60;1.00;;;;;;5007930;28;20194;-71
2023/03/06 01:37:15;;;;;;;29.40;12.70;;;4.80;1.00;;;;;;5006500;28;20198;-71
2023/03/06 01:39:41;;;;;;;21.80;11.90;;;4.50;1.00;;;;;;5008541;28;20213;-71
2023/03/06 01:42:06;;;;;;;22.90;12.27;;;4.60;1.00;;;;;;5007698;28;20297;-71
2023/03/06 01:44:32;;;;;;;23.70;12.10;;;4.50;1.00;;;;;;5007369;28;20190;-71
2023/03/06 01:47:01;;;;;;;19.40;12.57;;;4.50;1.00;;;;;;5007681;28;20284;-71
2023/03/06 01:49:35;;;;;;;34.50;12.97;;;4.50;1.00;;;;;;5008505;28;20671;-71
2023/03/06 01:52:08;;;;;;;24.70;12.30;;;4.50;1.00;;;;;;5008158;28;20481;-71
2023/03/06 01:54:39;;;;;;;21.30;11.73;;;4.50;1.00;;;;;;5007396;28;20445;-71
2023/03/06 01:57:16;;;;;;;22.70;12.73;;;4.50;1.00;;;;;;5011477;28;20532;-71
2023/03/06 01:59:42;;;;;;;23.53;13.00;;;4.50;1.00;;;;;;5006914;28;20475;-71
2023/03/06 02:02:10;;;;;;;26.73;11.53;;;4.50;1.00;;;;;;5003066;28;20515;-71
2023/03/06 02:04:39;;;;;;;21.30;10.97;;;4.50;1.00;;;;;;5011053;28;20445;-71
2023/03/06 02:07:04;;;;;;;20.90;12.10;;;4.50;1.00;;;;;;5009629;28;20781;-70
2023/03/06 02:09:32;;;;;;;19.03;11.57;;;4.50;1.00;;;;;;5008659;28;21007;-71
2023/03/06 02:11:59;;;;;;;19.30;11.60;;;4.50;1.00;;;;;;5011007;28;20457;-71
2023/03/06 02:14:25;;;;;;;16.30;10.60;;;4.50;1.00;;;;;;5009571;28;20495;-71
2023/03/06 02:16:50;;;;;;;21.17;11.23;;;4.50;1.00;;;;;;5012479;28;20483;-71
2023/03/06 02:19:23;;;;;;;20.80;11.67;;;4.50;1.00;;;;;;5011470;28;20436;-71
2023/03/06 02:21:49;;;;;;;19.90;11.00;;;4.50;1.00;;;;;;5011957;28;20214;-71
2023/03/06 02:24:35;;;;;;;23.60;11.47;;;4.40;1.00;;;;;;5010763;28;20878;-71
2023/03/06 02:27:03;;;;;;;18.50;11.20;;;4.50;1.00;;;;;;5011902;28;20688;-71
2023/03/06 02:29:29;;;;;;;21.00;10.70;;;4.50;1.00;;;;;;5011225;28;20445;-71
2023/03/06 02:31:55;;;;;;;19.10;11.23;;;4.60;1.00;;;;;;5011909;28;20620;-71
2023/03/06 02:34:20;;;;;;;25.40;11.90;;;4.60;1.00;;;;;;5010720;28;20441;-71
2023/03/06 02:36:53;;;;;;;64.90;25.37;;;4.60;1.00;;;;;;5009251;28;20548;-71
2023/03/06 02:39:22;;;;;;;93.83;35.00;;;4.50;1.00;;;;;;5009471;28;20190;-71
2023/03/06 02:41:48;;;;;;;122.33;43.60;;;4.50;1.00;;;;;;5010668;28;20473;-70
2023/03/06 02:44:14;;;;;;;82.03;31.93;;;4.50;1.00;;;;;;5009588;28;20441;-69
2023/03/06 02:46:39;;;;;;;37.03;18.10;;;4.50;1.00;;;;;;5011989;28;20185;-71
2023/03/06 02:49:05;;;;;;;27.40;13.60;;;4.50;1.00;;;;;;5009059;28;20413;-71
2023/03/06 02:51:30;;;;;;;25.87;12.53;;;4.50;1.00;;;;;;5010022;28;20199;-71
2023/03/06 02:53:56;;;;;;;23.10;11.90;;;4.50;1.00;;;;;;5005306;28;20233;-71
2023/03/06 02:56:21;;;;;;;21.03;11.83;;;4.50;1.00;;;;;;5010072;28;20233;-71
2023/03/06 02:58:47;;;;;;;24.23;12.73;;;4.50;1.00;;;;;;5011216;28;20568;-70
2023/03/06 03:01:13;;;;;;;19.10;11.07;;;4.50;1.00;;;;;;5010680;28;20218;-71
2023/03/06 03:03:38;;;;;;;20.40;12.27;;;4.50;1.00;;;;;;5005827;28;20233;-71
2023/03/06 03:06:05;;;;;;;23.80;13.30;;;4.50;1.00;;;;;;5009028;28;20185;-71
2023/03/06 03:08:31;;;;;;;20.40;12.00;;;4.50;1.00;;;;;;5010513;28;20185;-71
2023/03/06 03:10:57;;;;;;;20.67;12.47;;;4.40;1.00;;;;;;5011225;28;20461;-70
2023/03/06 03:13:23;;;;;;;23.10;12.93;;;4.40;1.00;;;;;;5010035;28;20480;-71
2023/03/06 03:16:03;;;;;;;20.07;12.50;;;4.40;1.00;;;;;;5010922;28;20473;-70
2023/03/06 03:18:29;;;;;;;23.23;13.60;;;4.50;1.00;;;;;;5010091;28;20198;-70
2023/03/06 03:20:55;;;;;;;21.10;12.90;;;4.40;1.00;;;;;;5010832;28;20469;-71
2023/03/06 03:23:20;;;;;;;18.77;12.20;;;4.40;1.00;;;;;;5009921;28;20190;-71
2023/03/06 03:25:46;;;;;;;21.13;13.13;;;4.40;1.00;;;;;;5010728;28;20185;-71
2023/03/06 03:28:12;;;;;;;20.83;12.60;;;4.40;1.00;;;;;;5009835;28;20585;-71
2023/03/06 03:30:39;;;;;;;23.00;13.20;;;4.40;1.00;;;;;;5010866;28;20221;-70
2023/03/06 03:33:04;;;;;;;19.80;11.70;;;4.40;1.00;;;;;;5009813;28;20459;-71
2023/03/06 03:35:30;;;;;;;19.83;11.77;;;4.40;1.00;;;;;;5008828;28;20480;-71
2023/03/06 03:37:55;;;;;;;23.17;11.93;;;4.40;1.00;;;;;;5010891;28;20198;-71
2023/03/06 03:40:21;;;;;;;18.00;10.53;;;4.40;1.00;;;;;;5009516;28;20233;-71
2023/03/06 03:42:46;;;;;;;19.93;11.53;;;4.30;1.00;;;;;;5010623;28;20239;-71
2023/03/06 03:45:12;;;;;;;19.93;10.80;;;4.30;1.00;;;;;;5009133;28;20178;-71
2023/03/06 03:47:37;;;;;;;17.53;10.33;;;4.30;1.00;;;;;;5010765;28;20456;-71
2023/03/06 03:50:03;;;;;;;23.23;11.13;;;4.30;1.00;;;;;;5009168;28;20198;-70
2023/03/06 03:52:29;;;;;;;18.00;10.00;;;4.30;1.00;;;;;;5010261;28;20190;-71
2023/03/06 03:54:54;;;;;;;20.30;11.40;;;4.30;1.00;;;;;;5005157;28;20437;-70
2023/03/06 03:57:20;;;;;;;18.47;11.50;;;4.30;1.00;;;;;;5009673;28;20213;-71
2023/03/06 03:59:45;;;;;;;20.63;11.77;;;4.30;1.00;;;;;;5010028;28;20225;-71
2023/03/06 04:02:11;;;;;;;19.70;10.77;;;4.30;1.00;;;;;;5008165;28;20190;-70
2023/03/06 04:04:36;;;;;;;19.37;11.20;;;4.30;1.00;;;;;;5007592;28;20255;-71
2023/03/06 04:07:03;;;;;;;20.67;11.97;;;4.30;1.00;;;;;;5010193;28;20183;-70
2023/03/06 04:09:28;;;;;;;25.80;11.10;;;4.30;1.00;;;;;;5009337;28;20179;-71
2023/03/06 04:11:54;;;;;;;18.20;11.13;;;4.20;1.00;;;;;;5009714;28;20441;-70
2023/03/06 04:14:19;;;;;;;20.17;12.03;;;4.30;1.00;;;;;;5009197;28;20190;-71
2023/03/06 04:16:45;;;;;;;17.60;10.80;;;4.30;1.00;;;;;;5007110;28;20530;-71
2023/03/06 04:19:10;;;;;;;16.87;9.90;;;4.30;1.00;;;;;;5007867;28;20214;-71
2023/03/06 04:21:36;;;;;;;19.40;11.70;;;4.30;1.00;;;;;;5010287;28;20726;-71
2023/03/06 04:24:02;;;;;;;19.37;10.70;;;4.30;1.00;;;;;;5008634;28;20194;-71
2023/03/06 04:26:27;;;;;;;24.63;11.40;;;4.20;1.00;;;;;;5010836;28;20190;-71
2023/03/06 04:28:54;;;;;;;16.77;10.13;;;4.30;1.00;;;;;;5008538;28;20182;-70
2023/03/06 04:31:20;;;;;;;19.07;11.30;;;4.20;1.00;;;;;;5009783;28;20202;-71
2023/03/06 04:33:45;;;;;;;18.23;10.83;;;4.20;1.00;;;;;;5006986;28;20441;-71
2023/03/06 04:36:25;;;;;;;20.40;11.17;;;4.20;1.00;;;;;;5009648;28;20202;-71
2023/03/06 04:38:51;;;;;;;21.10;11.87;;;4.20;1.00;;;;;;5008686;28;20182;-71
2023/03/06 04:41:16;;;;;;;23.23;13.77;;;4.20;1.00;;;;;;5009589;28;21050;-69
2023/03/06 04:43:42;;;;;;;27.70;15.60;;;4.20;1.00;;;;;;5008510;28;20185;-71
2023/03/06 04:46:09;;;;;;;40.53;21.60;;;4.20;1.00;;;;;;5008557;28;20207;-73
2023/03/06 04:48:35;;;;;;;24.87;13.70;;;4.20;1.00;;;;;;5009351;28;20225;-71
2023/03/06 04:51:01;;;;;;;17.10;10.40;;;4.30;1.00;;;;;;5008482;28;20496;-69
2023/03/06 04:53:26;;;;;;;20.10;10.90;;;4.30;1.00;;;;;;5006690;28;20225;-69
2023/03/06 04:55:52;;;;;;;25.87;13.03;;;4.30;1.00;;;;;;5006668;28;20178;-71
2023/03/06 04:58:17;;;;;;;18.23;10.47;;;4.30;1.00;;;;;;5007626;28;21019;-71
2023/03/06 05:00:43;;;;;;;18.20;10.83;;;4.30;1.00;;;;;;5008681;28;20731;-71
2023/03/06 05:03:10;;;;;;;19.57;10.73;;;4.30;1.00;;;;;;5007275;28;20693;-71
2023/03/06 05:05:36;;;;;;;20.13;10.87;;;4.20;1.00;;;;;;5008112;28;20174;-71
2023/03/06 05:08:02;;;;;;;17.60;10.43;;;4.20;1.00;;;;;;5008121;28;20433;-71
2023/03/06 05:10:28;;;;;;;20.40;10.77;;;4.30;1.00;;;;;;5009233;28;20761;-71
2023/03/06 05:12:53;;;;;;;24.00;11.87;;;4.30;1.00;;;;;;5006942;28;20541;-71
2023/03/06 05:15:19;;;;;;;20.67;12.50;;;4.30;1.00;;;;;;5009726;28;20429;-71
2023/03/06 05:17:46;;;;;;;20.47;12.30;;;4.30;1.00;;;;;;5007769;28;20215;-71
2023/03/06 05:20:12;;;;;;;21.13;11.00;;;4.30;1.00;;;;;;5008931;28;20213;-71
2023/03/06 05:22:39;;;;;;;18.67;10.70;;;4.40;1.00;;;;;;5008183;28;20429;-71
2023/03/06 05:25:05;;;;;;;18.83;11.30;;;4.30;1.00;;;;;;5009017;28;20420;-71
2023/03/06 05:27:30;;;;;;;18.70;10.63;;;4.30;1.00;;;;;;5004490;28;20430;-71
2023/03/06 05:29:56;;;;;;;16.73;10.10;;;4.30;1.00;;;;;;5006935;28;20988;-71
2023/03/06 05:32:22;;;;;;;18.50;10.80;;;4.30;1.00;;;;;;5012428;28;20325;-71
2023/03/06 05:34:48;;;;;;;20.40;10.97;;;4.30;1.00;;;;;;5010594;28;20228;-71
2023/03/06 05:37:14;;;;;;;19.90;11.70;;;4.30;1.00;;;;;;5009345;28;20948;-71
2023/03/06 05:39:39;;;;;;;19.10;10.40;;;4.40;1.00;;;;;;5011738;28;20485;-71
2023/03/06 05:42:05;;;;;;;20.00;11.10;;;4.40;1.00;;;;;;5012089;28;20289;-71
2023/03/06 05:44:32;;;;;;;22.43;12.00;;;4.40;1.00;;;;;;5010217;28;20252;-71
2023/03/06 05:46:58;;;;;;;21.13;12.57;;;4.40;1.00;;;;;;5012683;28;20667;-71
2023/03/06 05:49:24;;;;;;;20.60;12.70;;;4.40;1.00;;;;;;5011476;28;20425;-71
2023/03/06 05:51:49;;;;;;;27.17;12.90;;;4.30;1.00;;;;;;5013068;28;20445;-71
2023/03/06 05:54:15;;;;;;;22.87;11.30;;;4.30;1.00;;;;;;5009445;28;20349;-71
2023/03/06 05:56:40;;;;;;;19.47;12.33;;;4.40;1.00;;;;;;5012860;28;20266;-71
2023/03/06 05:59:06;;;;;;;21.47;11.97;;;4.40;1.00;;;;;;5011248;28;20237;-71
2023/03/06 06:01:31;;;;;;;20.10;11.57;;;4.40;1.00;;;;;;5013478;28;20206;-71
2023/03/06 06:03:57;;;;;;;20.47;11.87;;;4.50;1.00;;;;;;5010374;28;20258;-70
2023/03/06 06:06:22;;;;;;;16.20;10.73;;;4.50;1.00;;;;;;5011999;28;20191;-71
2023/03/06 06:08:48;;;;;;;18.57;10.87;;;4.50;1.00;;;;;;5011961;28;20649;-70
2023/03/06 06:11:13;;;;;;;16.53;10.40;;;4.50;1.00;;;;;;5010729;28;20202;-71
2023/03/06 06:13:39;;;;;;;18.60;11.07;;;4.50;1.00;;;;;;5012325;28;20194;-71
2023/03/06 06:16:14;;;;;;;20.60;11.00;;;4.50;1.00;;;;;;5011494;28;20205;-71
2023/03/06 06:18:40;;;;;;;38.90;14.23;;;4.50;1.00;;;;;;5012122;28;20181;-71
2023/03/06 06:21:07;;;;;;;20.97;12.23;;;4.50;1.00;;;;;;5010551;28;20508;-71
2023/03/06 06:23:32;;;;;;;22.33;12.63;;;4.40;1.00;;;;;;5008814;28;20266;-71
2023/03/06 06:26:04;;;;;;;26.53;11.97;;;4.40;1.00;;;;;;5010172;28;20999;-70
2023/03/06 06:28:31;;;;;;;24.00;12.33;;;4.40;1.00;;;;;;5009559;28;20649;-69
2023/03/06 06:30:57;;;;;;;22.93;13.17;;;4.40;1.00;;;;;;5009740;28;20464;-71
2023/03/06 06:33:23;;;;;;;19.50;12.33;;;4.40;1.00;;;;;;5010351;28;20430;-73
2023/03/06 06:35:49;;;;;;;18.97;11.80;;;4.30;1.00;;;;;;5012582;28;20191;-71
2023/03/06 06:38:15;;;;;;;21.53;12.73;;;4.30;1.00;;;;;;5011300;28;20455;-71
2023/03/06 06:40:40;;;;;;;26.17;14.23;;;4.40;1.00;;;;;;5011320;28;20571;-72
2023/03/06 06:43:06;;;;;;;23.27;12.30;;;4.40;1.00;;;;;;5008147;28;20709;-71
2023/03/06 06:45:31;;;;;;;23.70;13.00;;;4.50;1.00;;;;;;5011863;28;20187;-71
2023/03/06 06:47:57;;;;;;;20.50;12.57;;;4.50;1.00;;;;;;5010059;28;20182;-71
2023/03/06 06:50:23;;;;;;;19.33;12.00;;;4.60;1.00;;;;;;5010815;28;20203;-71
2023/03/06 06:52:48;;;;;;;18.63;11.23;;;4.50;1.00;;;;;;5009850;28;20194;-71
2023/03/06 06:55:14;;;;;;;18.60;11.20;;;4.50;1.00;;;;;;5003606;28;20194;-71
2023/03/06 06:57:41;;;;;;;20.10;12.63;;;4.50;1.00;;;;;;5007231;28;20187;-70
2023/03/06 07:00:07;;;;;;;19.77;12.20;;;4.60;1.00;;;;;;5009698;28;20589;-71
2023/03/06 07:02:33;;;;;;;22.97;12.63;;;4.60;1.00;;;;;;5008110;28;20437;-71
2023/03/06 07:04:58;;;;;;;19.23;11.50;;;4.60;1.00;;;;;;5009804;28;20448;-71
2023/03/06 07:07:24;;;;;;;21.07;12.17;;;4.60;1.00;;;;;;5009192;28;20233;-71
2023/03/06 07:09:50;;;;;;;26.87;12.70;;;4.60;1.00;;;;;;5008846;28;20350;-71
2023/03/06 07:12:15;;;;;;;19.60;11.60;;;4.60;1.00;;;;;;5010143;28;20569;-71
2023/03/06 07:14:41;;;;;;;18.93;11.47;;;4.70;1.00;;;;;;5007872;28;20270;-70
2023/03/06 07:17:08;;;;;;;17.77;10.80;;;4.70;1.00;;;;;;5005991;28;20229;-70
2023/03/06 07:19:33;;;;;;;23.37;12.17;;;4.80;1.00;;;;;;5004289;28;20183;-70
2023/03/06 07:21:59;;;;;;;20.63;11.90;;;4.80;1.00;;;;;;5008960;28;20469;-70
2023/03/06 07:24:25;;;;;;;21.47;11.97;;;4.80;1.00;;;;;;5010378;28;20178;-70
2023/03/06 07:26:51;;;;;;;26.80;11.20;;;4.80;1.00;;;;;;5007815;28;20195;-70
2023/03/06 07:29:17;;;;;;;20.30;11.97;;;4.80;1.00;;;;;;5009175;28;20882;-70
2023/03/06 07:31:42;;;;;;;23.50;12.73;;;4.80;1.00;;;;;;5008285;28;20724;-70
2023/03/06 07:34:11;;;;;;;20.33;12.30;;;4.80;1.00;;;;;;5006686;28;20534;-70
2023/03/06 07:36:39;;;;;;;19.83;12.87;;;4.80;1.00;;;;;;5008259;28;20186;-70
2023/03/06 07:39:08;;;;;;;20.33;11.93;;;4.80;1.00;;;;;;5007674;28;20799;-70
2023/03/06 07:41:33;;;;;;;19.83;11.97;;;4.80;1.00;;;;;;5010581;28;20477;-70
2023/03/06 07:43:59;;;;;;;18.97;11.70;;;4.90;1.00;;;;;;5008066;28;20449;-70
2023/03/06 07:46:25;;;;;;;25.33;12.60;;;4.90;1.00;;;;;;5008531;28;20191;-70
2023/03/06 07:48:50;;;;;;;19.07;11.77;;;5.00;1.00;;;;;;5008449;28;20205;-73
2023/03/06 07:51:18;;;;;;;20.97;12.20;;;4.90;1.00;;;;;;5007638;28;20214;-72
2023/03/06 07:53:43;;;;;;;19.93;12.07;;;5.00;1.00;;;;;;5005740;28;20191;-72
2023/03/06 07:56:10;;;;;;;19.90;12.57;;;5.00;1.00;;;;;;4997708;28;20445;-71
2023/03/06 07:58:40;;;;;;;19.00;10.63;;;5.10;1.00;;;;;;5003143;28;20189;-70
2023/03/06 08:01:09;;;;;;;27.43;12.53;;;5.10;1.00;;;;;;5006438;28;20472;-71
2023/03/06 08:03:35;;;;;;;20.60;11.27;;;5.10;1.00;;;;;;5007485;28;20891;-72
2023/03/06 08:06:12;;;;;;;23.50;12.17;;;5.00;1.00;;;;;;5008080;28;20795;-72
2023/03/06 08:08:39;;;;;;;23.50;11.37;;;5.10;1.00;;;;;;5002495;28;20912;-72
2023/03/06 08:11:06;;;;;;;19.20;11.10;;;5.10;1.00;;;;;;5008265;28;20457;-72
2023/03/06 08:13:33;;;;;;;20.83;11.20;;;5.00;1.00;;;;;;5003197;28;20963;-72
2023/03/06 08:15:59;;;;;;;20.60;11.27;;;5.10;1.00;;;;;;5009227;28;20469;-72
2023/03/06 08:18:25;;;;;;;20.10;11.17;;;5.10;1.00;;;;;;5010114;28;20429;-72
2023/03/06 08:21:02;;;;;;;20.43;10.77;;;5.20;1.00;;;;;;5008737;28;20780;-72
2023/03/06 08:23:28;;;;;;;21.40;11.30;;;5.30;1.00;;;;;;5008597;28;20432;-72
2023/03/06 08:25:56;;;;;;;17.67;10.90;;;5.30;1.00;;;;;;5004648;28;20432;-72
2023/03/06 08:28:21;;;;;;;18.90;10.23;;;5.30;1.00;;;;;;5005836;28;20429;-71
2023/03/06 08:30:47;;;;;;;20.30;11.40;;;5.30;1.00;;;;;;5009084;28;20449;-72
2023/03/06 08:33:12;;;;;;;20.60;11.80;;;5.50;1.00;;;;;;5007197;28;20648;-71
2023/03/06 08:35:38;;;;;;;18.97;10.37;;;5.70;1.00;;;;;;5008293;28;20182;-72
2023/03/06 08:38:03;;;;;;;21.90;11.97;;;5.70;1.00;;;;;;5008196;28;20182;-71
2023/03/06 08:40:29;;;;;;;16.27;10.20;;;5.80;1.00;;;;;;5009232;28;20211;-72
2023/03/06 08:42:55;;;;;;;21.10;12.00;;;6.10;1.00;;;;;;5005099;28;20213;-72
2023/03/06 08:45:20;;;;;;;19.73;11.40;;;6.40;1.00;;;;;;5008868;28;20182;-72
2023/03/06 08:47:46;;;;;;;25.93;14.90;;;6.70;1.00;;;;;;5004957;28;20213;-72
2023/03/06 08:50:11;;;;;;;20.00;11.60;;;7.00;1.00;;;;;;5008797;28;20207;-71
2023/03/06 08:52:37;;;;;;;21.87;11.87;;;7.30;1.00;;;;;;5000708;28;20712;-73
2023/03/06 08:55:02;;;;;;;20.13;10.93;;;7.50;1.00;;;;;;5007213;28;20269;-72
2023/03/06 08:57:29;;;;;;;19.80;12.20;;;7.40;1.00;;;;;;5008599;28;20179;-72
2023/03/06 08:59:55;;;;;;;21.67;11.70;;;7.20;1.00;;;;;;5009021;28;20225;-72
2023/03/06 09:02:20;;;;;;;22.87;12.30;;;7.00;1.00;;;;;;5007158;28;20479;-71
2023/03/06 09:04:46;;;;;;;20.30;11.40;;;6.60;1.00;;;;;;5008121;28;20641;-71
2023/03/06 09:07:11;;;;;;;18.60;11.23;;;6.50;1.00;;;;;;5007480;28;20186;-70
2023/03/06 09:09:37;;;;;;;18.83;11.60;;;6.50;1.00;;;;;;5008912;28;20213;-70
2023/03/06 09:12:02;;;;;;;18.60;10.67;;;6.60;1.00;;;;;;5006981;28;20197;-70
2023/03/06 09:14:29;;;;;;;20.57;11.70;;;6.70;1.00;;;;;;5009200;28;20443;-70
2023/03/06 09:16:55;;;;;;;21.60;11.33;;;6.60;1.00;;;;;;5007675;28;20277;-71
2023/03/06 09:19:20;;;;;;;20.73;12.23;;;6.40;1.00;;;;;;5009104;28;20532;-71
2023/03/06 09:21:47;;;;;;;19.40;11.93;;;6.40;1.00;;;;;;5009069;28;20202;-71
2023/03/06 09:24:12;;;;;;;19.20;12.03;;;6.40;1.00;;;;;;5007600;28;20178;-70
2023/03/06 09:26:38;;;;;;;21.93;12.67;;;6.40;1.00;;;;;;5006835;28;20434;-71
2023/03/06 09:29:04;;;;;;;22.00;10.90;;;6.20;1.00;;;;;;5008832;28;20183;-71
2023/03/06 09:31:30;;;;;;;18.07;11.20;;;6.20;1.00;;;;;;5008951;28;20460;-70
2023/03/06 09:33:56;;;;;;;18.17;11.33;;;6.20;1.00;;;;;;5008262;28;20178;-71
2023/03/06 09:36:22;;;;;;;19.90;11.40;;;6.30;1.00;;;;;;5009470;28;20521;-70
2023/03/06 09:38:48;;;;;;;20.60;11.03;;;6.20;1.00;;;;;;5009205;28;20190;-70
2023/03/06 09:41:33;;;;;;;22.00;11.70;;;6.10;1.00;;;;;;5009010;28;20210;-70
2023/03/06 09:44:03;;;;;;;17.70;11.60;;;6.10;1.00;;;;;;5005933;28;20438;-71
2023/03/06 09:47:06;;;;;;;21.80;11.60;;;6.10;1.00;;;;;;5009304;28;20428;-70
2023/03/06 09:49:59;;;;;;;17.00;10.87;;;5.90;1.00;;;;;;5007502;28;20792;-70
2023/03/06 09:52:46;;;;;;;20.30;10.43;;;6.00;1.00;;;;;;5008242;28;20433;-71
2023/03/06 09:55:17;;;;;;;20.63;11.20;;;5.90;1.00;;;;;;5008876;28;20433;-70
2023/03/06 09:58:03;;;;;;;24.70;11.63;;;6.00;1.00;;;;;;5008596;28;20444;-70
2023/03/06 10:00:40;;;;;;;19.77;11.00;;;6.10;1.00;;;;;;5007818;28;20480;-71
2023/03/06 10:03:27;;;;;;;17.73;10.57;;;6.20;1.00;;;;;;5007730;28;20437;-70
2023/03/06 10:05:56;;;;;;;17.27;10.20;;;6.30;1.00;;;;;;5007778;28;20823;-71
2023/03/06 10:08:56;;;;;;;20.97;11.30;;;6.50;1.00;;;;;;5005503;28;20521;-70
2023/03/06 10:11:31;;;;;;;20.77;11.97;;;6.60;1.00;;;;;;5005259;28;20551;-71
2023/03/06 10:14:16;;;;;;;20.47;11.43;;;6.70;1.00;;;;;;5005953;28;20448;-70
2023/03/06 10:16:42;;;;;;;21.73;11.30;;;6.90;1.00;;;;;;5010422;28;20425;-71
2023/03/06 10:19:16;;;;;;;21.03;11.03;;;6.90;1.00;;;;;;5012048;28;20449;-71
2023/03/06 10:21:52;;;;;;;24.13;12.40;;;7.00;1.00;;;;;;5012965;28;20198;-70
2023/03/06 10:24:32;;;;;;;20.70;11.17;;;7.00;1.00;;;;;;5008939;28;20452;-70
2023/03/06 10:27:42;;;;;;;21.47;11.43;;;7.10;1.00;;;;;;5006246;28;20491;-71
2023/03/06 10:30:36;;;;;;;20.27;11.60;;;7.20;1.00;;;;;;4968485;28;20470;-71
2023/03/06 10:33:10;;;;;;;24.13;12.30;;;7.30;1.00;;;;;;4965992;28;20529;-70
2023/03/06 10:35:49;;;;;;;23.53;11.90;;;7.10;1.00;;;;;;5000889;28;20442;-71
2023/03/06 10:38:20;;;;;;;19.83;11.20;;;7.20;1.00;;;;;;5010788;28;20440;-71
2023/03/06 10:41:11;;;;;;;21.27;11.03;;;7.30;1.00;;;;;;5012530;28;20480;-71
2023/03/06 10:43:42;;;;;;;23.63;12.20;;;7.40;1.00;;;;;;5010358;28;20437;-71
2023/03/06 10:46:10;;;;;;;28.50;14.50;;;7.40;1.00;;;;;;5012203;28;20433;-71
2023/03/06 10:48:37;;;;;;;17.60;11.13;;;7.50;1.00;;;;;;5011359;28;20815;-71
2023/03/06 10:51:21;;;;;;;22.60;11.80;;;7.30;1.00;;;;;;5008966;28;21009;-70
2023/03/06 10:54:02;;;;;;;29.40;13.57;;;7.40;1.00;;;;;;5003778;28;20452;-70
2023/03/06 10:56:32;;;;;;;22.10;11.40;;;7.40;1.00;;;;;;5010409;28;20528;-70
2023/03/06 10:59:18;;;;;;;19.73;11.73;;;7.20;1.00;;;;;;5011866;28;21009;-71
2023/03/06 11:01:49;;;;;;;28.33;12.50;;;7.20;1.00;;;;;;5004505;28;20491;-70
2023/03/06 11:04:35;;;;;;;19.13;10.50;;;7.20;1.00;;;;;;5010514;28;20520;-70
2023/03/06 11:07:11;;;;;;;22.40;11.93;;;7.40;1.00;;;;;;5008507;28;20444;-71
2023/03/06 11:09:37;;;;;;;17.80;10.50;;;7.40;1.00;;;;;;5006416;28;21069;-71
2023/03/06 11:12:21;;;;;;;24.63;11.70;;;7.30;1.00;;;;;;5010929;28;20441;-72
2023/03/06 11:15:05;;;;;;;19.10;11.03;;;7.40;1.00;;;;;;5007156;28;20190;-72
2023/03/06 11:17:32;;;;;;;18.93;11.37;;;7.50;1.00;;;;;;5009998;28;20456;-71
2023/03/06 11:20:27;;;;;;;17.70;11.10;;;7.50;1.00;;;;;;5008982;28;20544;-71
2023/03/06 11:22:54;;;;;;;17.07;11.23;;;7.40;1.00;;;;;;4999124;28;20540;-71
2023/03/06 11:25:25;;;;;;;17.97;11.57;;;7.30;1.00;;;;;;5010426;28;20438;-71
2023/03/06 11:28:02;;;;;;;18.57;11.33;;;7.10;1.00;;;;;;5009528;28;20943;-71
2023/03/06 11:30:41;;;;;;;20.17;12.30;;;6.80;1.00;;;;;;5011052;28;21021;-71
2023/03/06 11:33:19;;;;;;;18.80;12.23;;;6.90;1.00;;;;;;5005811;28;20441;-71
2023/03/06 11:35:54;;;;;;;18.20;11.13;;;6.90;1.00;;;;;;5011270;28;20494;-71
2023/03/06 11:38:44;;;;;;;20.60;11.70;;;7.00;1.00;;;;;;5010004;28;20554;-71
2023/03/06 11:41:38;;;;;;;18.63;11.53;;;6.90;1.00;;;;;;5010889;28;20507;-71
2023/03/06 11:44:42;;;;;;;17.93;12.10;;;6.70;1.00;;;;;;5000168;28;20468;-71
2023/03/06 11:47:24;;;;;;;19.63;12.40;;;6.70;1.00;;;;;;5009393;28;20792;-71
2023/03/06 11:50:04;;;;;;;22.83;13.13;;;6.70;1.00;;;;;;5011358;28;20443;-71
2023/03/06 11:52:46;;;;;;;23.33;12.43;;;6.60;1.00;;;;;;5009164;28;20532;-71
2023/03/06 11:55:16;;;;;;;26.70;13.07;;;6.50;1.00;;;;;;5005913;28;20429;-71
2023/03/06 11:57:57;;;;;;;21.30;11.90;;;6.60;1.00;;;;;;5008242;28;20428;-71
2023/03/06 12:00:44;;;;;;;19.37;12.20;;;6.60;1.00;;;;;;5005055;28;20484;-71
2023/03/06 12:03:43;;;;;;;18.67;10.57;;;6.70;1.00;;;;;;5006923;28;20508;-71
2023/03/06 12:06:26;;;;;;;20.10;11.53;;;6.50;1.00;;;;;;5006692;28;20944;-71
2023/03/06 12:09:10;;;;;;;18.60;11.00;;;6.40;1.00;;;;;;5005390;28;20784;-71
2023/03/06 12:11:44;;;;;;;20.87;12.10;;;6.50;1.00;;;;;;5009648;28;20461;-72
2023/03/06 12:14:25;;;;;;;20.13;12.90;;;6.50;1.00;;;;;;5008716;28;21013;-71
2023/03/06 12:17:11;;;;;;;19.90;12.07;;;6.40;1.00;;;;;;5011171;28;20737;-71
2023/03/06 12:19:43;;;;;;;20.27;12.70;;;6.40;1.00;;;;;;5008799;28;20437;-71
2023/03/06 12:22:38;;;;;;;20.27;12.83;;;6.40;1.00;;;;;;5010480;28;20523;-71
2023/03/06 12:25:27;;;;;;;18.57;12.10;;;6.40;1.00;;;;;;4991740;28;20796;-71
2023/03/06 12:28:02;;;;;;;22.27;13.40;;;6.50;1.00;;;;;;5010861;28;20410;-71
2023/03/06 12:31:19;;;;;;;19.87;12.40;;;7.60;1.00;;;;;;5008567;28;20463;-71
2023/03/06 12:34:03;;;;;;;20.47;10.73;;;6.70;1.00;;;;;;4989198;28;20453;-71
2023/03/06 12:36:51;;;;;;;15.43;10.30;;;6.80;1.00;;;;;;5007791;28;20526;-71
2023/03/06 12:39:42;;;;;;;15.73;9.43;;;6.90;1.00;;;;;;5009355;28;20456;-71
2023/03/06 12:42:29;;;;;;;13.83;9.50;;;6.90;1.00;;;;;;5009482;28;20987;-71
2023/03/06 12:45:21;;;;;;;18.40;10.10;;;6.90;1.00;;;;;;5007041;28;20429;-71
2023/03/06 12:47:50;;;;;;;15.47;10.17;;;7.00;1.00;;;;;;5007682;28;21045;-71
2023/03/06 12:50:26;;;;;;;13.30;10.10;;;7.10;1.00;;;;;;5008904;28;20465;-72
2023/03/06 12:52:55;;;;;;;16.63;10.60;;;7.10;1.00;;;;;;5002248;28;20479;-72
2023/03/06 12:55:21;;;;;;;17.40;10.70;;;7.20;1.00;;;;;;5008814;28;20472;-71
2023/03/06 12:57:47;;;;;;;15.00;9.57;;;7.10;1.00;;;;;;5007808;28;20983;-71
2023/03/06 13:00:31;;;;;;;14.80;9.70;;;7.20;1.00;;;;;;5009734;28;20461;-71